createdAt,value
2022-12-26T00:02:01.124Z,101209.53
2022-12-26T00:05:03.825Z,101207.81
2022-12-26T00:08:08.031Z,101209.53
2022-12-26T00:11:11.906Z,101180.44
2022-12-26T00:14:16.285Z,101176.16
2022-12-26T00:17:18.680Z,101158.22
2022-12-26T00:20:21.253Z,101186.44
2022-12-26T00:23:23.717Z,101195.00
2022-12-26T00:26:28.516Z,101196.72
2022-12-26T00:29:32.003Z,101169.31
2022-12-26T00:32:34.380Z,101192.41
2022-12-26T00:35:36.819Z,101174.44
2022-12-26T00:38:41.327Z,101173.63
2022-12-26T00:41:43.718Z,101197.56
2022-12-26T00:44:46.097Z,101219.81
2022-12-26T00:47:48.421Z,101224.06
2022-12-26T00:50:50.998Z,101189.00
2022-12-26T00:53:53.435Z,101198.41
2022-12-26T00:56:55.812Z,101171.91
2022-12-26T00:59:58.198Z,101194.13
2022-12-26T01:03:00.828Z,101199.28
2022-12-26T01:06:04.277Z,101193.28
2022-12-26T01:09:06.806Z,101124.00
2022-12-26T01:12:09.121Z,101130.81
2022-12-26T01:15:11.642Z,101167.59
2022-12-26T01:18:13.953Z,101127.41
2022-12-26T01:21:16.338Z,101136.78
2022-12-26T01:24:18.832Z,101172.69
2022-12-26T01:27:21.738Z,101179.50
2022-12-26T01:30:24.215Z,101166.63
2022-12-26T01:33:26.573Z,101138.44
2022-12-26T01:36:29.059Z,101135.81
2022-12-26T01:39:31.396Z,101149.44
2022-12-26T01:42:40.672Z,101129.78
2022-12-26T01:45:51.044Z,101146.00
2022-12-26T01:48:55.455Z,101124.63
2022-12-26T01:52:04.141Z,101138.31
2022-12-26T01:55:10.173Z,101123.78
2022-12-26T01:58:17.225Z,101146.91
2022-12-26T02:01:21.968Z,101088.78
2022-12-26T02:04:51.816Z,101132.38
2022-12-26T02:07:54.235Z,101132.38
2022-12-26T02:11:08.439Z,101137.53
2022-12-26T02:14:11.461Z,101140.94
2022-12-26T02:17:14.077Z,101135.81
2022-12-26T02:20:20.877Z,101094.78
2022-12-26T02:23:41.843Z,101148.59
2022-12-26T02:27:10.309Z,101143.44
2022-12-26T02:30:31.181Z,101147.69
2022-12-26T02:33:58.520Z,101141.72
2022-12-26T02:37:21.085Z,101116.81
2022-12-26T02:41:01.979Z,101143.28
2022-12-26T02:44:40.768Z,101152.66
2022-12-26T02:47:43.572Z,101140.53
2022-12-26T02:51:13.313Z,101138.84
2022-12-26T02:54:45.521Z,101135.41
2022-12-26T02:58:18.533Z,101125.09
2022-12-26T03:02:04.522Z,101073.84
2022-12-26T03:05:34.995Z,101054.25
2022-12-26T03:09:01.252Z,101091.69
2022-12-26T03:12:42.034Z,101061.88
2022-12-26T03:16:34.019Z,101058.47
2022-12-26T03:19:58.204Z,101076.50
2022-12-26T03:23:06.299Z,101085.06
2022-12-26T03:26:42.063Z,101076.44
2022-12-26T03:30:03.533Z,101070.47
2022-12-26T03:33:26.767Z,101067.94
2022-12-26T03:36:50.795Z,101091.84
2022-12-26T03:40:17.768Z,101102.91
2022-12-26T03:44:21.398Z,101101.25
2022-12-26T03:47:47.745Z,101067.16
2022-12-26T03:51:17.220Z,101074.84
2022-12-26T03:54:56.949Z,101086.69
2022-12-26T03:58:41.573Z,101076.47
2022-12-26T04:02:04.435Z,101087.50
2022-12-26T04:05:28.903Z,101074.72
2022-12-26T04:09:07.932Z,101076.41
2022-12-26T04:12:38.129Z,101082.31
2022-12-26T04:16:10.431Z,101050.69
2022-12-26T04:19:37.790Z,101080.47
2022-12-26T04:23:11.976Z,101059.25
2022-12-26T04:26:55.825Z,101074.53
2022-12-26T04:30:17.055Z,101081.38
2022-12-26T04:33:46.802Z,101076.16
2022-12-26T04:37:17.225Z,101076.97
2022-12-26T04:40:44.895Z,101061.38
2022-12-26T04:44:09.018Z,101064.63
2022-12-26T04:47:12.044Z,101045.84
2022-12-26T04:50:15.471Z,101038.13
2022-12-26T04:53:18.464Z,101067.97
2022-12-26T04:56:20.822Z,101027.81
2022-12-26T04:59:23.521Z,101058.59
2022-12-26T05:02:44.303Z,101030.41
2022-12-26T05:06:08.166Z,101020.94
2022-12-26T05:09:30.342Z,101016.75
2022-12-26T05:12:32.866Z,101047.38
2022-12-26T05:15:56.755Z,101044.72
2022-12-26T05:19:17.417Z,101020.91
2022-12-26T05:22:39.103Z,101012.16
2022-12-26T05:26:02.297Z,101040.28
2022-12-26T05:29:05.502Z,100976.28
2022-12-26T05:32:07.885Z,100999.41
2022-12-26T05:35:10.514Z,101038.56
2022-12-26T05:38:12.860Z,101044.59
2022-12-26T05:41:16.467Z,101025.75
2022-12-26T05:44:18.847Z,101046.41
2022-12-26T05:47:21.245Z,100999.34
2022-12-26T05:50:23.601Z,101029.16
2022-12-26T05:53:26.673Z,101001.22
2022-12-26T05:56:29.047Z,101015.75
2022-12-26T05:59:31.375Z,101016.38
2022-12-26T06:02:33.898Z,101019.78
2022-12-26T06:05:36.409Z,100997.59
2022-12-26T06:08:39.485Z,101031.75
2022-12-26T06:11:48.514Z,100974.69
2022-12-26T06:14:51.489Z,101018.97
2022-12-26T06:17:55.036Z,100999.28
2022-12-26T06:20:57.705Z,101005.09
2022-12-26T06:24:00.116Z,100981.25
2022-12-26T06:27:03.311Z,100974.44
2022-12-26T06:30:06.169Z,100976.19
2022-12-26T06:33:08.648Z,100979.66
2022-12-26T06:36:13.913Z,101002.47
2022-12-26T06:39:16.285Z,100997.41
2022-12-26T06:42:18.821Z,100977.09
2022-12-26T06:45:21.206Z,100996.78
2022-12-26T06:48:25.033Z,100994.09
2022-12-26T06:51:28.992Z,100974.34
2022-12-26T06:54:31.296Z,100950.47
2022-12-26T06:57:33.671Z,100979.38
2022-12-26T07:00:36.237Z,100953.63
2022-12-26T07:03:44.796Z,100965.75
2022-12-26T07:06:51.199Z,100942.75
2022-12-26T07:09:53.677Z,100958.94
2022-12-26T07:12:56.352Z,100986.34
2022-12-26T07:16:00.175Z,100976.34
2022-12-26T07:19:03.953Z,100989.84
2022-12-26T07:22:06.639Z,100959.16
2022-12-26T07:25:09.416Z,100979.56
2022-12-26T07:28:11.873Z,100957.44
2022-12-26T07:31:19.071Z,100963.47
2022-12-26T07:34:24.104Z,100959.22
2022-12-26T07:37:30.253Z,100960.72
2022-12-26T07:40:32.735Z,100962.38
2022-12-26T07:43:35.097Z,100994.00
2022-12-26T07:46:37.834Z,100990.63
2022-12-26T07:49:40.393Z,101006.75
2022-12-26T07:52:43.014Z,100986.22
2022-12-26T07:55:45.491Z,100968.41
2022-12-26T07:58:51.841Z,101030.88
2022-12-26T08:01:54.507Z,101006.84
2022-12-26T08:04:56.993Z,101028.13
2022-12-26T08:07:59.388Z,100971.84
2022-12-26T08:11:03.486Z,101016.81
2022-12-26T08:14:05.867Z,101003.25
2022-12-26T08:17:08.416Z,101010.94
2022-12-26T08:20:10.996Z,101029.53
2022-12-26T08:23:13.770Z,100996.97
2022-12-26T08:26:20.886Z,100996.03
2022-12-26T08:29:23.340Z,101024.84
2022-12-26T08:32:25.801Z,100990.69
2022-12-26T08:35:30.269Z,101020.66
2022-12-26T08:38:33.984Z,101009.66
2022-12-26T08:41:36.668Z,101008.63
2022-12-26T08:44:39.051Z,101032.47
2022-12-26T08:47:41.369Z,101004.19
2022-12-26T08:50:43.760Z,101005.78
2022-12-26T08:53:46.841Z,101004.84
2022-12-26T08:56:49.219Z,100990.47
2022-12-26T08:59:51.993Z,101011.53
2022-12-26T09:02:54.564Z,101005.38
2022-12-26T09:06:05.661Z,100996.97
2022-12-26T09:09:13.669Z,101005.81
2022-12-26T09:12:16.027Z,101004.97
2022-12-26T09:15:18.419Z,101007.44
2022-12-26T09:18:20.806Z,101004.03
2022-12-26T09:21:23.560Z,101007.56
2022-12-26T09:24:25.920Z,100975.19
2022-12-26T09:27:29.313Z,100957.25
2022-12-26T09:30:31.804Z,100998.81
2022-12-26T09:33:37.632Z,100996.91
2022-12-26T09:36:40.145Z,100991.25
2022-12-26T09:39:42.555Z,100967.88
2022-12-26T09:43:17.361Z,100970.00
2022-12-26T09:46:34.849Z,100993.84
2022-12-26T09:49:46.256Z,100986.19
2022-12-26T09:53:00.944Z,100964.88
2022-12-26T09:56:18.336Z,100971.69
2022-12-26T09:59:34.427Z,100960.06
2022-12-26T10:02:36.914Z,100942.47
2022-12-26T10:06:03.478Z,100951.53
2022-12-26T10:09:08.803Z,100967.06
2022-12-26T10:12:32.723Z,100972.19
2022-12-26T10:15:46.107Z,100956.53
2022-12-26T10:18:51.257Z,100952.50
2022-12-26T10:22:05.397Z,100939.69
2022-12-26T10:25:21.651Z,100917.53
2022-12-26T10:28:33.549Z,100957.09
2022-12-26T10:31:42.528Z,100963.28
2022-12-26T10:34:48.105Z,100973.59
2022-12-26T10:37:53.721Z,100946.22
2022-12-26T10:41:00.631Z,100917.13
2022-12-26T10:44:03.832Z,100911.09
2022-12-26T10:47:23.513Z,100915.81
2022-12-26T10:50:29.464Z,100919.25
2022-12-26T10:53:46.525Z,100924.03
2022-12-26T10:56:51.729Z,100885.38
2022-12-26T10:59:55.673Z,100907.31
2022-12-26T11:03:06.232Z,100899.69
2022-12-26T11:06:10.218Z,100873.53
2022-12-26T11:09:38.260Z,100893.00
2022-12-26T11:12:50.139Z,100894.53
2022-12-26T11:15:53.504Z,100881.81
2022-12-26T11:18:57.109Z,100910.88
2022-12-26T11:22:22.544Z,100915.28
2022-12-26T11:25:27.582Z,100864.19
2022-12-26T11:28:32.236Z,100901.53
2022-12-26T11:31:34.889Z,100907.84
2022-12-26T11:34:46.347Z,100914.91
2022-12-26T11:37:57.023Z,100897.94
2022-12-26T11:41:18.375Z,100898.72
2022-12-26T11:44:30.217Z,100869.94
2022-12-26T11:47:32.663Z,100905.44
2022-12-26T11:50:45.793Z,100903.78
2022-12-26T11:53:48.095Z,100885.09
2022-12-26T11:57:20.348Z,100873.59
2022-12-26T12:00:24.535Z,100911.31
2022-12-26T12:03:37.789Z,100901.66
2022-12-26T12:07:00.906Z,100894.25
2022-12-26T12:10:50.555Z,100879.72
2022-12-26T12:14:23.817Z,100883.81
2022-12-26T12:17:34.281Z,100896.63
2022-12-26T12:21:04.357Z,100887.69
2022-12-26T12:24:32.342Z,100848.16
2022-12-26T12:27:59.409Z,100902.63
2022-12-26T12:31:17.012Z,100906.59
2022-12-26T12:34:22.362Z,100918.56
2022-12-26T12:37:33.378Z,100908.28
2022-12-26T12:41:06.158Z,100898.72
2022-12-26T12:44:43.810Z,100903.31
2022-12-26T12:48:15.585Z,100909.59
2022-12-26T12:51:24.243Z,100906.00
2022-12-26T12:54:57.197Z,100903.44
2022-12-26T12:58:33.604Z,100894.16
2022-12-26T13:01:47.344Z,100906.94
2022-12-26T13:04:59.648Z,100883.75
2022-12-26T13:08:11.224Z,100895.78
2022-12-26T13:11:30.867Z,100914.72
2022-12-26T13:14:40.577Z,100920.59
2022-12-26T13:17:56.193Z,100922.13
2022-12-26T13:21:06.772Z,100908.38
2022-12-26T13:24:25.275Z,100885.81
2022-12-26T13:27:31.600Z,100902.41
2022-12-26T13:30:34.029Z,100896.75
2022-12-26T13:33:36.644Z,100894.28
2022-12-26T13:36:38.949Z,100906.09
2022-12-26T13:39:41.740Z,100897.59
2022-12-26T13:43:18.874Z,100905.28
2022-12-26T13:46:35.108Z,100908.50
2022-12-26T13:49:40.181Z,100909.63
2022-12-26T13:52:43.740Z,100905.38
2022-12-26T13:55:46.476Z,100861.22
2022-12-26T13:59:13.013Z,100898.59
2022-12-26T14:06:36.375Z,100890.28
2022-12-26T14:10:02.004Z,100901.59
2022-12-26T14:13:14.329Z,100895.41
2022-12-26T14:16:24.436Z,100866.63
2022-12-26T14:19:41.229Z,100900.72
2022-12-26T14:23:10.305Z,100906.75
2022-12-26T14:26:57.531Z,100874.41
2022-12-26T14:30:18.480Z,100903.31
2022-12-26T14:33:39.966Z,100893.19
2022-12-26T14:36:54.535Z,100906.91
2022-12-26T14:40:22.574Z,100903.47
2022-12-26T14:43:36.868Z,100910.50
2022-12-26T14:46:40.274Z,100910.63
2022-12-26T14:49:43.058Z,100882.44
2022-12-26T14:52:45.600Z,100898.53
2022-12-26T14:55:52.262Z,100907.00
2022-12-26T14:59:26.993Z,100914.03
2022-12-26T15:02:35.723Z,100888.50
2022-12-26T15:05:42.853Z,100910.50
2022-12-26T15:08:45.179Z,100910.56
2022-12-26T15:12:24.528Z,100918.22
2022-12-26T15:15:48.777Z,100922.59
2022-12-26T15:19:12.605Z,100928.72
2022-12-26T15:22:33.620Z,100920.06
2022-12-26T15:25:41.754Z,100927.00
2022-12-26T15:28:47.012Z,100928.63
2022-12-26T15:32:14.504Z,100892.59
2022-12-26T15:35:36.417Z,100912.06
2022-12-26T15:38:54.116Z,100883.94
2022-12-26T15:42:03.553Z,100909.22
2022-12-26T15:45:27.717Z,100924.91
2022-12-26T15:48:56.343Z,100925.78
2022-12-26T15:52:07.507Z,100920.69
2022-12-26T15:55:17.938Z,100898.63
2022-12-26T15:58:35.401Z,100917.94
2022-12-26T16:01:39.310Z,100909.16
2022-12-26T16:04:52.141Z,100905.88
2022-12-26T16:08:19.293Z,100901.72
2022-12-26T16:11:25.536Z,100893.09
2022-12-26T16:14:39.472Z,100865.03
2022-12-26T16:17:43.200Z,100893.09
2022-12-26T16:21:05.560Z,100875.78
2022-12-26T16:24:10.034Z,100880.44
2022-12-26T16:27:18.639Z,100853.19
2022-12-26T16:30:26.929Z,100840.06
2022-12-26T16:33:32.738Z,100836.72
2022-12-26T16:36:36.623Z,100846.22
2022-12-26T16:39:39.328Z,100841.88
2022-12-26T16:43:00.917Z,100850.56
2022-12-26T16:46:06.107Z,100866.91
2022-12-26T16:49:10.261Z,100866.97
2022-12-26T16:52:48.346Z,100886.50
2022-12-26T16:55:56.781Z,100885.50
2022-12-26T16:59:06.323Z,100884.78
2022-12-26T17:02:18.592Z,100868.41
2022-12-26T17:05:26.008Z,100859.16
2022-12-26T17:08:28.771Z,100851.13
2022-12-26T17:11:35.274Z,100873.19
2022-12-26T17:14:40.894Z,100882.84
2022-12-26T17:17:45.995Z,100852.34
2022-12-26T17:20:48.593Z,100834.31
2022-12-26T17:24:09.225Z,100878.50
2022-12-26T17:27:19.059Z,100876.94
2022-12-26T17:30:30.574Z,100874.44
2022-12-26T17:33:33.744Z,100847.59
2022-12-26T17:37:17.138Z,100853.50
2022-12-26T17:40:19.495Z,100843.94
2022-12-26T17:43:31.023Z,100832.03
2022-12-26T17:46:33.481Z,100830.41
2022-12-26T17:49:36.303Z,100827.19
2022-12-26T17:52:39.458Z,100795.69
2022-12-26T17:55:41.983Z,100781.88
2022-12-26T17:58:44.360Z,100816.97
2022-12-26T18:01:46.913Z,100813.19
2022-12-26T18:04:50.480Z,100756.41
2022-12-26T18:07:53.469Z,100794.44
2022-12-26T18:10:56.220Z,100812.44
2022-12-26T18:13:58.599Z,100824.38
2022-12-26T18:17:02.466Z,100793.50
2022-12-26T18:20:06.582Z,100821.72
2022-12-26T18:23:11.209Z,100820.13
2022-12-26T18:26:22.326Z,100795.41
2022-12-26T18:29:24.870Z,100800.63
2022-12-26T18:32:30.966Z,100829.56
2022-12-26T18:35:33.885Z,100830.34
2022-12-26T18:38:36.281Z,100792.16
2022-12-26T18:41:38.644Z,100791.94
2022-12-26T18:44:42.548Z,100781.66
2022-12-26T18:47:44.893Z,100804.75
2022-12-26T18:50:47.702Z,100774.16
2022-12-26T18:53:50.103Z,100807.41
2022-12-26T18:56:52.646Z,100783.19
2022-12-26T18:59:55.369Z,100804.47
2022-12-26T19:02:57.949Z,100782.31
2022-12-26T19:06:00.701Z,100809.06
2022-12-26T19:09:03.436Z,100774.28
2022-12-26T19:12:06.341Z,100803.28
2022-12-26T19:15:09.957Z,100780.44
2022-12-26T19:18:12.776Z,100757.09
2022-12-26T19:21:16.301Z,100769.00
2022-12-26T19:24:18.851Z,100788.63
2022-12-26T19:27:21.831Z,100774.75
2022-12-26T19:30:24.367Z,100755.13
2022-12-26T19:33:27.047Z,100757.19
2022-12-26T19:36:29.568Z,100783.69
2022-12-26T19:39:32.180Z,100781.13
2022-12-26T19:42:37.321Z,100777.38
2022-12-26T19:45:40.121Z,100762.31
2022-12-26T19:48:43.454Z,100776.63
2022-12-26T19:51:46.436Z,100764.88
2022-12-26T19:54:49.293Z,100792.16
2022-12-26T19:57:51.981Z,100778.47
2022-12-26T20:00:54.897Z,100771.53
2022-12-26T20:03:59.299Z,100751.03
2022-12-26T20:07:01.798Z,100757.50
2022-12-26T20:10:05.134Z,100736.41
2022-12-26T20:13:07.569Z,100754.41
2022-12-26T20:16:37.535Z,100768.91
2022-12-26T20:19:36.663Z,100773.19
2022-12-26T20:22:39.054Z,100780.22
2022-12-26T20:25:41.584Z,100740.00
2022-12-26T20:28:44.528Z,100776.31
2022-12-26T20:31:47.264Z,100766.75
2022-12-26T20:34:49.656Z,100746.56
2022-12-26T20:37:52.206Z,100782.69
2022-12-26T20:40:54.871Z,100785.16
2022-12-26T20:43:58.382Z,100774.94
2022-12-26T20:47:00.776Z,100765.81
2022-12-26T20:50:03.377Z,100762.09
2022-12-26T20:53:05.938Z,100783.19
2022-12-26T20:56:09.220Z,100787.72
2022-12-26T20:59:11.871Z,100773.22
2022-12-26T21:02:14.813Z,100746.56
2022-12-26T21:05:17.853Z,100734.75
2022-12-26T21:08:21.103Z,100741.72
2022-12-26T21:11:25.281Z,100745.91
2022-12-26T21:14:27.748Z,100754.38
2022-12-26T21:17:30.081Z,100780.00
2022-12-26T21:20:32.489Z,100784.19
2022-12-26T21:23:36.225Z,100745.78
2022-12-26T21:26:41.894Z,100765.69
2022-12-26T21:29:44.508Z,100781.06
2022-12-26T21:32:46.898Z,100773.47
2022-12-26T21:35:53.220Z,100796.47
2022-12-26T21:38:57.009Z,100778.38
2022-12-26T21:42:00.475Z,100764.91
2022-12-26T21:45:02.994Z,100788.88
2022-12-26T21:48:06.000Z,100785.38
2022-12-26T21:51:08.992Z,100753.06
2022-12-26T21:54:29.747Z,100779.88
2022-12-26T21:57:34.262Z,100777.03
2022-12-26T22:00:37.140Z,100722.88
2022-12-26T22:03:57.893Z,100746.88
2022-12-26T22:07:00.344Z,100724.88
2022-12-26T22:10:04.623Z,100750.38
2022-12-26T22:13:07.287Z,100738.94
2022-12-26T22:16:11.713Z,100714.69
2022-12-26T22:19:14.336Z,100735.91
2022-12-26T22:22:16.843Z,100742.81
2022-12-26T22:25:19.913Z,100741.50
2022-12-26T22:28:23.547Z,100747.03
2022-12-26T22:31:28.903Z,100758.88
2022-12-26T22:34:31.279Z,100759.13
2022-12-26T22:37:33.665Z,100729.00
2022-12-26T22:40:36.350Z,100722.91
2022-12-26T22:43:38.814Z,100740.13
2022-12-26T22:46:42.035Z,100747.94
2022-12-26T22:49:44.580Z,100754.94
2022-12-26T22:52:47.145Z,100740.25
2022-12-26T22:55:58.314Z,100730.63
2022-12-26T22:59:01.012Z,100704.38
2022-12-26T23:02:04.023Z,100684.97
2022-12-26T23:05:10.754Z,100709.72
2022-12-26T23:08:22.184Z,100677.19
2022-12-26T23:11:33.938Z,100658.66
2022-12-26T23:14:37.674Z,100695.59
2022-12-26T23:18:02.079Z,100684.03
2022-12-26T23:21:27.857Z,100669.75
2022-12-26T23:24:32.168Z,100698.78
2022-12-26T23:27:52.887Z,100666.19
2022-12-26T23:30:55.370Z,100690.91
2022-12-26T23:33:57.758Z,100664.56
2022-12-26T23:37:00.373Z,100654.31
2022-12-26T23:40:03.375Z,100688.41
2022-12-26T23:43:05.847Z,100684.88
2022-12-26T23:46:10.195Z,100691.78
2022-12-26T23:49:16.028Z,100695.31
2022-12-26T23:52:18.565Z,100684.91
2022-12-26T23:55:20.944Z,100679.63
2022-12-26T23:58:23.516Z,100685.22
